Grand Union Canal Half Marathon
Skip Navigation Links
13 November 2016
HyperLink
Click you name for detailed results
Page 1 of 12 (586 items)
[1]23456789101112
Pos
Bib No
Fav
Share
Photo
Print
Name
Gun Time
Chip Time
Category
Cat Pos
Gender
Gen Pos
Club
Pace
1277Stuart MACDOUGALL01:17:41.201:17:41.2Top 31Male1FULHAM RC10.1 m/hr
2282Edmund REES01:18:01.701:18:01.7Top 32Male2 10.1 m/hr
325Ilias BILLAS01:20:31.001:20:30.5Top 33Male3  9.8 m/hr
4270Matthew WOODMAN01:20:59.101:20:59.1Sen1Male4STAFFORD HARRIETS 9.7 m/hr
5121Dan HIGGINS01:22:44.701:22:42.3Sen2Male5HIGHGATE HARRIERS 9.5 m/hr
6291Edward PRESTON01:22:52.701:22:52.7Sen3Male6  9.5 m/hr
7271Joel WOODS01:23:10.401:23:08.7Sen4Male7  9.5 m/hr
833Ilir BRECANI01:23:48.801:23:44.2Sen5Male8NORTHAMPTON ROAD RUNNERS 9.4 m/hr
946Russell CASEY01:24:18.101:24:18.1Sen6Male9GARDEN CITY RUNNERS 9.3 m/hr
1093Adam ELDERFIELD01:24:40.301:24:38.9Sen7Male10HILLINGDON AC 9.3 m/hr
11167Louis MONTFORT01:24:52.501:24:50.5Sen8Male11  9.3 m/hr
12191Henri PARIS01:25:12.701:25:10.3Sen9Male12  9.2 m/hr
13217Matthew SCHEPISI01:25:18.901:25:18.9Sen10Male13  9.2 m/hr
14162William MCKENNA01:25:49.401:25:47.6Sen11Male14METROS RC 9.2 m/hr
15131Alex JEFFREYS01:26:10.401:26:09.7V401Male15SERPENTINE RC 9.1 m/hr
16273Stuart WRIGHT01:26:27.401:26:24.8Sen12Male16  9.1 m/hr
1777Simon DANNATT01:27:32.001:27:29.7V402Male17  9.0 m/hr
18284Simon BLAKE-WILSON01:27:35.501:27:32.3V403Male18MOUNTAIN VIEW AREA RUN CLUB 9.0 m/hr
1922Daniel BERRY01:28:17.301:28:12.8V501Male19MORNINGTON CHASERS 8.9 m/hr
2072Darren CURTIS-WHITE01:28:18.401:28:15.2V404Male20SOMER AC 8.9 m/hr
21101James FREETH01:28:29.601:28:24.4Sen13Male21  8.9 m/hr
224Emily ANTCLIFFE01:28:38.001:28:37.3Top 31Female1HARROW AC 8.9 m/hr
23244Ben THORNTON01:28:46.201:28:46.2V502Male22  8.9 m/hr
24438Chris LAMBERT01:28:46.801:28:46.8Sen14Male23  8.9 m/hr
25205Marvin REYNOLDS01:29:31.101:29:20.9Sen15Male24  8.8 m/hr
26114Nathan HAGUENAUER01:30:07.401:30:07.4Sen16Male25  8.7 m/hr
27261Tom WEBBY01:30:29.701:30:25.7Sen17Male26  8.7 m/hr
28174Kieran MORRISROE01:30:39.701:30:36.6Sen18Male27EALING EAGLES RUNNING CLUB 8.7 m/hr
2954Simon CLARIDGE01:31:12.501:31:12.5V503Male28HILLINGDON AC 8.6 m/hr
3098Peter FOSTER01:31:27.901:31:26.0V405Male29  8.6 m/hr
31260Daniel WATKINS01:32:09.701:32:08.4V406Male30HARROW AC 8.5 m/hr
32264Alice WHILEY01:32:11.301:32:08.7Top 32Female2CLAPHAM CHASERS 8.5 m/hr
3362Cosmo COULTER01:32:37.901:32:34.5Sen19Male31  8.5 m/hr
3440Rory CALLAN01:32:38.101:32:35.2Sen20Male32  8.5 m/hr
35268Fredrik WOLFF01:32:38.401:32:35.0V407Male33  8.5 m/hr
36228James SMITH01:33:39.301:33:33.3Sen21Male34  8.4 m/hr
37242Vanessa TAYLOR01:33:49.301:33:45.5Top 33Female3  8.4 m/hr
38169Dan MORAN01:33:52.201:33:50.8Sen22Male35  8.4 m/hr
3943Jose CAROTO01:33:56.401:33:53.9V408Male36  8.4 m/hr
40246Richard TURNER01:34:17.601:34:16.5V409Male37SERPENTINE RC 8.3 m/hr
41185Tim NORWOOD01:34:18.701:34:09.5V4010Male38  8.3 m/hr
42232Pete SOUTHALL01:34:22.201:34:12.0Sen23Male39  8.3 m/hr
43356Harry DAWSON01:34:29.301:34:29.3Sen24Male40  8.3 m/hr
44234Cliff SPARKS01:34:35.601:34:31.8Sen25Male41  8.3 m/hr
45116Robert HARDING01:34:40.301:34:32.6Sen26Male42  8.3 m/hr
46170Dave MORGAN01:34:41.801:34:31.2V504Male43  8.3 m/hr
47220James SHOULDER01:34:50.401:34:46.6Sen27Male44  8.3 m/hr
4858Robert COLLINS01:34:53.701:34:45.1Sen28Male45  8.3 m/hr
49161Martin MCKEE01:35:09.701:35:03.8V505Male46  8.3 m/hr
50113Holly GRUNDON01:35:10.201:35:06.5Sen1Female4  8.3 m/hr
Page 1 of 12 (586 items)
[1]23456789101112
fb